Terminal Aerodrome Forecast
Issued by NWS

Home | Current Version | Previous Version | Text Only | Print | Product List | Glossary On
Versions: 1 2 3 4 5 6 7 8 9 10 11 12 13
000
FTUS44 KTSA 252320
TAFMLC
TAF
KMLC 252320Z 2600/2624 VRB04KT P6SM SKC
     FM260800 15004KT P6SM SCT250
     FM261500 17012KT P6SM BKN250
     FM262000 17008KT P6SM SCT050=

USA.gov is the U.S. government's official web portal to all federal, state and local government web resources and services.